Time;durP1;ratioP1;P1;durP2;ratioP2;P2;SDS_P1;SDS_P2;PMS_P1;PMS_P2;Temp;Humidity;BMP_temperature;BMP_pressure;BME280_temperature;BME280_humidity;BME280_pressure;Samples;Min_cycle;Max_cycle;Signal;HPM_P1;HPM_P2
2021/12/07 00:02:18;;;;;;;48.67;23.42;;;2.20;99.90;;;;;;6103942;23;20022;-80
2021/12/07 00:04:46;;;;;;;38.45;21.38;;;2.20;99.90;;;;;;6127946;23;20188;-81
2021/12/07 00:07:20;;;;;;;35.13;20.67;;;2.10;99.90;;;;;;6127897;23;20116;-80
2021/12/07 00:09:49;;;;;;;39.88;22.80;;;2.00;99.90;;;;;;6128235;23;20029;-81
2021/12/07 00:12:15;;;;;;;38.22;21.30;;;2.00;99.90;;;;;;6103260;23;20017;-81
2021/12/07 00:14:43;;;;;;;48.17;23.20;;;1.90;99.90;;;;;;6128023;23;20051;-81
2021/12/07 00:17:21;;;;;;;40.95;20.33;;;1.90;99.90;;;;;;6103808;23;20018;-80
2021/12/07 00:19:51;;;;;;;40.63;21.45;;;1.90;99.90;;;;;;6132735;23;20042;-81
2021/12/07 00:22:17;;;;;;;42.42;23.25;;;1.80;99.90;;;;;;6131073;23;20021;-81
2021/12/07 00:24:45;;;;;;;39.70;21.40;;;1.80;99.90;;;;;;6126064;23;20032;-81
2021/12/07 00:27:11;;;;;;;41.15;22.60;;;1.70;99.90;;;;;;6129364;23;20026;-81
2021/12/07 00:29:39;;;;;;;44.42;23.38;;;1.70;99.90;;;;;;6154122;23;20029;-81
2021/12/07 00:32:29;;;;;;;42.55;22.67;;;1.70;99.90;;;;;;6129409;23;20424;-81
2021/12/07 00:37:40;;;;;;;43.55;22.67;;;1.70;99.90;;;;;;6154403;23;20024;-81
2021/12/07 00:40:08;;;;;;;42.28;22.83;;;1.70;99.90;;;;;;6154507;23;20033;-81
2021/12/07 00:42:35;;;;;;;43.10;23.20;;;1.70;99.90;;;;;;6128961;23;20028;-81
2021/12/07 00:45:01;;;;;;;47.05;24.33;;;1.70;99.90;;;;;;6153746;23;20036;-81
2021/12/07 00:47:27;;;;;;;39.45;23.13;;;1.60;99.90;;;;;;6153530;23;20041;-82
2021/12/07 00:49:53;;;;;;;42.17;24.60;;;1.60;99.90;;;;;;6153603;23;20053;-82
2021/12/07 00:52:19;;;;;;;45.38;23.83;;;1.60;99.90;;;;;;6128894;23;20024;-82
2021/12/07 00:54:45;;;;;;;38.72;23.20;;;1.60;99.90;;;;;;6153286;23;20022;-82
2021/12/07 00:57:13;;;;;;;41.72;22.70;;;1.60;99.90;;;;;;6153941;23;20032;-81
2021/12/07 00:59:46;;;;;;;43.38;22.45;;;1.60;99.90;;;;;;6133931;23;20018;-81
2021/12/07 01:02:12;;;;;;;41.65;22.63;;;1.60;99.90;;;;;;6135417;23;20036;-84
2021/12/07 01:05:03;;;;;;;43.08;23.27;;;1.70;99.90;;;;;;6156453;23;20115;-84
2021/12/07 01:07:56;;;;;;;44.28;24.27;;;1.60;99.90;;;;;;6153441;23;20024;-84
2021/12/07 01:27:07;;;;;;;40.95;22.77;;;1.60;99.90;;;;;;6152993;23;20072;-84
2021/12/07 01:29:34;;;;;;;41.60;21.95;;;1.60;99.90;;;;;;6156940;23;20083;-83
2021/12/07 01:41:24;;;;;;;44.35;22.52;;;1.60;99.90;;;;;;6037972;23;20020;-82
2021/12/07 01:49:58;;;;;;;43.47;22.08;;;1.50;99.90;;;;;;5983766;23;20418;-82
2021/12/07 02:00:47;;;;;;;41.92;21.63;;;1.50;99.90;;;;;;5990502;23;20039;-86
2021/12/07 02:03:13;;;;;;;39.58;20.38;;;1.50;99.90;;;;;;5955699;24;20095;-84
2021/12/07 02:05:39;;;;;;;35.17;20.90;;;1.50;99.90;;;;;;5955872;24;20116;-82
2021/12/07 02:08:05;;;;;;;39.38;21.50;;;1.50;99.90;;;;;;5974878;23;20023;-83
2021/12/07 02:10:34;;;;;;;40.95;20.63;;;1.50;99.90;;;;;;6012253;23;20031;-83
2021/12/07 02:14:01;;;;;;;40.20;20.90;;;1.50;99.90;;;;;;6012031;23;20535;-82
2021/12/07 02:16:16;;;;;;;36.30;19.85;;;1.50;99.90;;;;;;6049343;23;20021;-82
2021/12/07 02:18:45;;;;;;;41.33;21.10;;;1.50;99.90;;;;;;6079521;23;20362;-82
2021/12/07 02:21:16;;;;;;;45.70;21.98;;;1.50;99.90;;;;;;6103289;23;20029;-81
2021/12/07 02:23:42;;;;;;;38.03;18.63;;;1.60;99.90;;;;;;6097527;23;20060;-81
2021/12/07 02:26:09;;;;;;;41.60;20.33;;;1.50;99.90;;;;;;6130178;23;20021;-81
2021/12/07 02:28:39;;;;;;;39.13;19.05;;;1.60;99.90;;;;;;6128166;23;20018;-81
2021/12/07 02:31:06;;;;;;;38.50;19.42;;;1.60;99.90;;;;;;6152735;23;20072;-81
2021/12/07 02:33:37;;;;;;;38.35;18.73;;;1.60;99.90;;;;;;6128149;23;20017;-81
2021/12/07 02:36:26;;;;;;;36.00;18.20;;;1.60;99.90;;;;;;6128150;23;20084;-83
2021/12/07 02:38:54;;;;;;;33.92;17.08;;;1.60;99.90;;;;;;6154251;23;20032;-82
2021/12/07 02:41:29;;;;;;;;;;;1.60;99.90;;;;;;6155150;23;20028;-81
2021/12/07 02:43:57;;;;;;;31.30;15.88;;;1.70;99.90;;;;;;6128397;23;19917;-82
2021/12/07 02:46:22;;;;;;;31.75;15.52;;;1.70;99.90;;;;;;6177697;23;20488;-82
2021/12/07 02:48:48;;;;;;;30.90;16.90;;;1.70;99.90;;;;;;6158582;23;20022;-83
2021/12/07 02:51:14;;;;;;;29.50;16.25;;;1.70;99.90;;;;;;6155886;23;20037;-81
2021/12/07 02:53:40;;;;;;;28.05;15.55;;;1.70;99.90;;;;;;6130444;23;20018;-81
2021/12/07 02:56:07;;;;;;;30.88;16.60;;;1.70;99.90;;;;;;6156795;23;20344;-82
2021/12/07 02:58:35;;;;;;;29.85;15.18;;;1.60;99.90;;;;;;6111131;23;20073;-81
2021/12/07 03:01:12;;;;;;;28.67;15.05;;;1.70;99.90;;;;;;6156322;23;20105;-81
2021/12/07 03:03:51;;;;;;;27.88;15.85;;;1.70;99.90;;;;;;6154484;23;20040;-81
2021/12/07 03:06:25;;;;;;;30.75;15.23;;;1.70;99.90;;;;;;6179149;23;20033;-81
2021/12/07 03:09:40;;;;;;;27.33;15.70;;;1.70;99.90;;;;;;6179222;23;20457;-81
2021/12/07 03:28:08;;;;;;;24.50;13.65;;;1.70;99.90;;;;;;6159238;23;20025;-82
2021/12/07 03:30:34;;;;;;;23.95;13.10;;;1.70;99.90;;;;;;6158747;23;20021;-83
2021/12/07 03:33:02;;;;;;;24.85;14.40;;;1.70;99.90;;;;;;6136523;23;20064;-82
2021/12/07 03:35:29;;;;;;;23.25;12.57;;;1.70;99.90;;;;;;6167474;23;20025;-83
2021/12/07 03:37:56;;;;;;;19.80;12.73;;;1.60;99.90;;;;;;6138444;23;20017;-83
2021/12/07 03:40:30;;;;;;;23.80;12.95;;;1.60;99.90;;;;;;6159244;23;20033;-82
2021/12/07 03:42:56;;;;;;;21.52;12.50;;;1.60;99.90;;;;;;6158859;23;20024;-82
2021/12/07 03:45:23;;;;;;;22.33;12.68;;;1.60;99.90;;;;;;6159031;23;20032;-83
2021/12/07 03:47:48;;;;;;;24.70;12.75;;;1.50;99.90;;;;;;6159281;23;20460;-83
2021/12/07 03:50:14;;;;;;;27.98;13.07;;;1.50;99.90;;;;;;6158564;23;20160;-83
2021/12/07 03:52:40;;;;;;;22.00;12.35;;;1.50;99.90;;;;;;6161190;23;20352;-83
2021/12/07 03:55:09;;;;;;;22.33;12.88;;;1.50;99.90;;;;;;6187386;23;20035;-84
2021/12/07 03:57:36;;;;;;;25.05;12.40;;;1.50;99.90;;;;;;6183547;23;20025;-82
2021/12/07 04:00:06;;;;;;;24.90;12.88;;;1.50;99.90;;;;;;6158314;23;20048;-83
2021/12/07 04:02:36;;;;;;;24.83;13.35;;;1.50;99.90;;;;;;6158443;23;20031;-83
2021/12/07 04:05:09;;;;;;;27.98;13.82;;;1.50;99.90;;;;;;6133984;23;20029;-83
2021/12/07 04:07:35;;;;;;;25.75;14.73;;;1.50;99.90;;;;;;6185873;23;20017;-82
2021/12/07 04:10:01;;;;;;;28.80;14.25;;;1.60;99.90;;;;;;6133404;23;20021;-83
2021/12/07 04:12:27;;;;;;;26.88;14.05;;;1.60;99.90;;;;;;6158693;23;20136;-83
2021/12/07 04:14:58;;;;;;;28.17;13.30;;;1.60;99.90;;;;;;6159104;23;20077;-83
2021/12/07 04:17:24;;;;;;;26.60;13.00;;;1.60;99.90;;;;;;6166192;23;20040;-83
2021/12/07 04:19:50;;;;;;;26.23;13.30;;;1.70;99.90;;;;;;6163427;23;20111;-83
2021/12/07 04:22:36;;;;;;;25.08;13.55;;;1.70;99.90;;;;;;6185400;23;20024;-83
2021/12/07 04:25:05;;;;;;;27.98;13.80;;;1.70;99.90;;;;;;6158801;23;20124;-82
2021/12/07 04:27:37;;;;;;;24.90;12.55;;;1.80;99.90;;;;;;6159582;23;20025;-82
2021/12/07 04:30:11;;;;;;;30.95;13.45;;;1.90;99.90;;;;;;6160006;23;20025;-83
2021/12/07 04:32:37;;;;;;;21.95;11.63;;;1.90;99.90;;;;;;6158626;23;20064;-84
2021/12/07 04:35:04;;;;;;;24.35;11.00;;;2.00;99.90;;;;;;6158764;23;20021;-83
2021/12/07 04:37:36;;;;;;;21.02;10.82;;;2.00;99.90;;;;;;6158191;23;20021;-83
2021/12/07 04:40:03;;;;;;;22.13;10.68;;;2.00;99.90;;;;;;6158262;23;20477;-82
2021/12/07 04:42:29;;;;;;;29.08;12.32;;;2.00;99.90;;;;;;6158159;23;20100;-82
2021/12/07 04:45:49;;;;;;;26.85;12.10;;;2.00;99.90;;;;;;6183796;23;20036;-82
2021/12/07 04:59:03;;;;;;;;;;;2.10;99.90;;;;;;6197271;23;20117;-83
2021/12/07 05:01:28;;;;;;;20.85;8.95;;;2.00;99.90;;;;;;6186707;23;20351;-82
2021/12/07 05:03:57;;;;;;;20.63;9.15;;;2.00;99.90;;;;;;6159773;23;20025;-83
2021/12/07 05:06:29;;;;;;;20.50;10.10;;;2.10;99.90;;;;;;6160149;23;20032;-82
2021/12/07 05:09:00;;;;;;;19.58;10.02;;;2.10;99.90;;;;;;6158334;23;20084;-82
2021/12/07 05:11:53;;;;;;;22.42;9.57;;;2.10;99.90;;;;;;6185457;23;20075;-82
2021/12/07 05:14:25;;;;;;;23.25;8.95;;;2.10;99.90;;;;;;6134320;23;20021;-82
2021/12/07 05:38:44;;;;;;;17.60;4.90;;;3.00;99.90;;;;;;6071205;23;20026;-81
2021/12/07 05:41:15;;;;;;;19.33;4.68;;;3.10;99.90;;;;;;6074816;23;20023;-81
2021/12/07 05:43:41;;;;;;;15.05;3.92;;;3.20;99.90;;;;;;6069196;23;20030;-81
2021/12/07 05:46:07;;;;;;;15.07;2.80;;;3.30;99.90;;;;;;6092556;23;20026;-80
2021/12/07 05:48:33;;;;;;;10.60;2.45;;;3.30;99.90;;;;;;6068684;23;20374;-81
2021/12/07 05:50:59;;;;;;;9.85;2.40;;;3.40;99.90;;;;;;6068247;23;20031;-81
2021/12/07 05:53:26;;;;;;;8.13;1.50;;;3.50;99.90;;;;;;6068490;23;20023;-81
2021/12/07 05:56:15;;;;;;;7.90;1.60;;;3.40;99.90;;;;;;6093141;23;20490;-80
2021/12/07 05:58:41;;;;;;;9.38;1.77;;;3.50;99.90;;;;;;6045042;23;20034;-81
2021/12/07 06:01:06;;;;;;;9.88;1.50;;;3.50;99.90;;;;;;6068671;23;20419;-82
2021/12/07 06:03:34;;;;;;;14.98;2.33;;;3.50;99.90;;;;;;6113086;23;20029;-82
2021/12/07 06:06:04;;;;;;;11.57;1.67;;;3.50;99.90;;;;;;6151841;23;20029;-82
2021/12/07 06:08:40;;;;;;;14.77;2.30;;;3.50;99.90;;;;;;6121641;23;20022;-81
2021/12/07 06:11:06;;;;;;;8.60;1.10;;;3.40;99.90;;;;;;6098469;23;20029;-82
2021/12/07 06:13:53;;;;;;;9.70;1.13;;;3.40;99.90;;;;;;6079899;23;20350;-76
2021/12/07 06:16:19;;;;;;;6.50;1.10;;;3.40;99.90;;;;;;6120689;23;20258;-74
2021/12/07 06:18:46;;;;;;;9.85;1.27;;;3.50;99.90;;;;;;6120720;23;20602;-80
2021/12/07 06:21:17;;;;;;;11.93;2.45;;;3.40;99.90;;;;;;6099142;23;20136;-80
2021/12/07 06:23:43;;;;;;;7.90;2.30;;;3.40;99.90;;;;;;6102713;23;20053;-79
2021/12/07 06:26:09;;;;;;;9.57;1.20;;;3.40;99.90;;;;;;6099245;23;20109;-79
2021/12/07 06:28:37;;;;;;;10.98;2.08;;;3.40;99.90;;;;;;6098330;23;20022;-80
2021/12/07 06:31:03;;;;;;;18.45;1.90;;;3.30;99.90;;;;;;6098486;23;20026;-80
2021/12/07 06:33:29;;;;;;;13.70;1.77;;;3.30;99.90;;;;;;6098576;23;20594;-80
2021/12/07 06:35:58;;;;;;;12.07;1.98;;;3.40;99.90;;;;;;6098366;23;20465;-80
2021/12/07 06:38:29;;;;;;;9.85;1.50;;;3.40;99.90;;;;;;6098458;23;20129;-79
2021/12/07 06:40:55;;;;;;;10.27;1.70;;;3.40;99.90;;;;;;6155507;23;20084;-79
2021/12/07 06:43:21;;;;;;;10.25;1.50;;;3.30;99.90;;;;;;6153475;23;20033;-79
2021/12/07 06:45:47;;;;;;;13.15;1.27;;;3.30;99.90;;;;;;6153778;23;20123;-80
2021/12/07 06:48:13;;;;;;;6.35;1.25;;;3.30;99.90;;;;;;6153578;23;20024;-80
2021/12/07 06:50:39;;;;;;;11.45;1.42;;;3.20;99.90;;;;;;6129194;23;20673;-80
2021/12/07 06:53:05;;;;;;;8.63;1.27;;;3.20;99.90;;;;;;6154360;23;20053;-76
2021/12/07 06:55:32;;;;;;;9.32;1.52;;;3.20;99.90;;;;;;6158491;23;20033;-82
2021/12/07 06:57:57;;;;;;;10.77;1.38;;;3.20;99.90;;;;;;6132984;23;20108;-81
2021/12/07 07:00:27;;;;;;;3.80;1.08;;;3.20;99.90;;;;;;6153632;23;20508;-82
2021/12/07 07:02:59;;;;;;;8.35;1.25;;;3.20;99.90;;;;;;6129345;23;20025;-82
2021/12/07 07:05:25;;;;;;;9.60;1.75;;;3.10;99.90;;;;;;6128268;23;20040;-76
2021/12/07 07:07:50;;;;;;;6.05;1.35;;;3.10;99.90;;;;;;6128477;23;20100;-80
2021/12/07 07:10:20;;;;;;;8.75;1.50;;;3.10;99.90;;;;;;6149989;23;20084;-85
2021/12/07 07:12:47;;;;;;;6.38;1.98;;;3.10;99.90;;;;;;6153265;23;20032;-86
2021/12/07 07:15:15;;;;;;;9.30;1.55;;;3.20;99.90;;;;;;6129028;23;20026;-83
2021/12/07 07:17:42;;;;;;;10.20;1.38;;;3.20;99.90;;;;;;6155375;23;20036;-83
2021/12/07 07:20:11;;;;;;;12.85;1.95;;;3.20;99.90;;;;;;6157836;23;20021;-84
2021/12/07 07:22:38;;;;;;;10.32;1.63;;;3.20;99.90;;;;;;6157900;23;20060;-83
2021/12/07 07:25:06;;;;;;;8.77;1.48;;;3.10;99.90;;;;;;6133803;23;20021;-83
2021/12/07 07:27:32;;;;;;;9.57;1.98;;;3.20;99.90;;;;;;6157995;23;20028;-86
2021/12/07 07:29:58;;;;;;;13.32;2.28;;;3.20;99.90;;;;;;6122734;23;20747;-84
2021/12/07 07:32:29;;;;;;;12.23;1.88;;;3.20;99.90;;;;;;6099816;23;20026;-83
2021/12/07 07:35:03;;;;;;;14.60;1.63;;;3.20;99.90;;;;;;6105318;23;20033;-83
2021/12/07 07:37:35;;;;;;;9.43;1.65;;;3.20;99.90;;;;;;6099190;23;20386;-81
2021/12/07 07:40:01;;;;;;;14.77;2.72;;;3.10;99.90;;;;;;6104715;23;20026;-81
2021/12/07 07:42:27;;;;;;;8.70;1.88;;;3.10;99.90;;;;;;6100285;23;20050;-81
2021/12/07 07:44:53;;;;;;;8.55;1.50;;;3.10;99.90;;;;;;6123698;23;20029;-82
2021/12/07 07:47:25;;;;;;;8.57;1.40;;;3.00;99.90;;;;;;6099279;23;20029;-81
2021/12/07 07:49:55;;;;;;;10.15;2.10;;;3.00;99.90;;;;;;6098699;23;20022;-83
2021/12/07 07:52:26;;;;;;;8.90;1.45;;;3.00;99.90;;;;;;6074613;23;20030;-81
2021/12/07 07:54:51;;;;;;;12.38;2.75;;;3.00;99.90;;;;;;6097781;23;20194;-73
2021/12/07 07:57:20;;;;;;;7.75;1.27;;;3.00;99.90;;;;;;6072685;23;20066;-80
2021/12/07 07:59:46;;;;;;;9.82;1.70;;;3.00;99.90;;;;;;6122745;23;20050;-74
2021/12/07 08:02:18;;;;;;;6.65;1.65;;;2.90;99.90;;;;;;6157706;23;20408;-80
2021/12/07 08:04:44;;;;;;;10.65;1.60;;;2.90;99.90;;;;;;6157341;23;20063;-82
2021/12/07 08:07:15;;;;;;;9.40;1.67;;;2.90;99.90;;;;;;6182702;23;20326;-82
2021/12/07 08:10:02;;;;;;;11.48;2.40;;;2.90;99.90;;;;;;6184188;23;20024;-76
2021/12/07 08:12:29;;;;;;;9.23;1.75;;;2.90;99.90;;;;;;6133245;23;20063;-81
2021/12/07 08:14:55;;;;;;;12.77;2.67;;;2.90;99.90;;;;;;6132423;23;20458;-83
2021/12/07 08:17:35;;;;;;;7.88;2.50;;;2.90;99.90;;;;;;6185287;23;20025;-87
2021/12/07 08:20:04;;;;;;;14.45;2.22;;;2.90;99.90;;;;;;6161290;23;20021;-85
2021/12/07 08:22:30;;;;;;;15.65;3.40;;;2.90;99.90;;;;;;6160002;23;20032;-88
2021/12/07 08:24:57;;;;;;;10.82;2.80;;;2.90;99.90;;;;;;6158569;23;20104;-83
2021/12/07 08:27:23;;;;;;;11.57;2.15;;;2.90;99.90;;;;;;6135681;23;20040;-76
2021/12/07 08:29:51;;;;;;;11.45;2.08;;;3.00;99.90;;;;;;6184365;23;20356;-76
2021/12/07 08:32:17;;;;;;;10.68;2.90;;;3.00;99.90;;;;;;6184664;23;20028;-78
2021/12/07 08:34:43;;;;;;;13.20;2.25;;;3.00;99.90;;;;;;6157248;23;20356;-81
2021/12/07 08:37:09;;;;;;;12.45;2.28;;;2.90;99.90;;;;;;6157288;23;20530;-79
2021/12/07 08:39:37;;;;;;;10.60;2.30;;;3.00;99.90;;;;;;6157667;23;20104;-81
2021/12/07 08:42:15;;;;;;;13.45;2.30;;;3.00;99.90;;;;;;6158034;23;20362;-78
2021/12/07 08:44:44;;;;;;;9.20;2.88;;;3.00;99.90;;;;;;6156573;23;20406;-78
2021/12/07 08:47:16;;;;;;;13.18;3.03;;;3.10;99.90;;;;;;6132666;23;20025;-83
2021/12/07 08:49:46;;;;;;;9.20;2.83;;;3.10;99.90;;;;;;6133843;23;20071;-86
2021/12/07 08:52:12;;;;;;;13.23;2.67;;;3.20;99.90;;;;;;6158083;23;20029;-81
2021/12/07 08:59:56;;;;;;;15.07;3.08;;;3.50;99.90;;;;;;6156894;23;20104;-80
2021/12/07 09:02:33;;;;;;;;;;;3.60;99.90;;;;;;6182967;23;20036;-72
2021/12/07 09:05:00;;;;;;;12.20;2.97;;;3.70;99.90;;;;;;6183978;23;20332;-84
2021/12/07 09:07:26;;;;;;;15.77;2.63;;;3.80;99.90;;;;;;6158637;23;20032;-81
2021/12/07 09:09:52;;;;;;;12.95;2.70;;;3.90;99.90;;;;;;6132696;23;20105;-80
2021/12/07 09:12:20;;;;;;;13.15;3.10;;;4.00;99.90;;;;;;6158831;23;20029;-84
2021/12/07 09:14:47;;;;;;;12.98;3.03;;;4.00;99.90;;;;;;6157292;23;20100;-81
2021/12/07 09:17:15;;;;;;;16.02;3.20;;;4.10;99.90;;;;;;6157904;23;20021;-85
2021/12/07 09:19:41;;;;;;;13.63;2.75;;;4.20;99.90;;;;;;6133316;23;20475;-79
2021/12/07 09:22:07;;;;;;;17.27;3.30;;;4.30;99.90;;;;;;6183755;23;20057;-79
2021/12/07 09:24:36;;;;;;;10.63;3.00;;;4.40;99.90;;;;;;6183815;23;20060;-81
2021/12/07 09:27:03;;;;;;;12.85;3.28;;;4.50;99.90;;;;;;6157347;23;20029;-76
2021/12/07 09:29:29;;;;;;;11.13;2.97;;;4.50;99.90;;;;;;6183229;23;20021;-76
2021/12/07 09:31:55;;;;;;;16.20;2.92;;;4.60;99.90;;;;;;6155939;23;20114;-72
2021/12/07 09:34:21;;;;;;;10.05;2.95;;;4.70;99.90;;;;;;6155824;23;20021;-71
2021/12/07 09:36:47;;;;;;;10.85;2.80;;;4.90;99.90;;;;;;6155630;23;20071;-72
2021/12/07 09:39:15;;;;;;;15.82;2.78;;;5.00;99.90;;;;;;6183295;23;20017;-72
2021/12/07 09:41:43;;;;;;;22.45;3.25;;;5.10;99.90;;;;;;6156345;23;20388;-75
2021/12/07 09:44:12;;;;;;;14.55;2.83;;;5.30;99.90;;;;;;6183407;23;20028;-72
2021/12/07 09:46:39;;;;;;;7.10;2.20;;;5.40;99.90;;;;;;6155915;23;20067;-71
2021/12/07 09:49:07;;;;;;;10.05;2.80;;;5.70;99.90;;;;;;6156181;23;20469;-72
2021/12/07 09:51:51;;;;;;;14.88;2.80;;;5.90;99.90;;;;;;6132570;23;20453;-83
2021/12/07 09:54:17;;;;;;;14.05;3.03;;;6.20;99.90;;;;;;6159430;23;20036;-86
2021/12/07 09:56:45;;;;;;;11.82;2.83;;;6.30;99.90;;;;;;6159962;23;20025;-85
2021/12/07 09:59:13;;;;;;;15.98;3.40;;;6.50;99.90;;;;;;6158043;23;20021;-85
2021/12/07 10:01:41;;;;;;;11.57;2.83;;;6.70;99.90;;;;;;6132004;23;20513;-86
2021/12/07 10:04:08;;;;;;;8.48;2.70;;;7.10;99.90;;;;;;6156966;23;20025;-75
2021/12/07 10:06:34;;;;;;;17.27;4.07;;;7.30;99.90;;;;;;6131867;23;20449;-80
2021/12/07 10:09:00;;;;;;;10.30;2.95;;;7.30;99.90;;;;;;6157226;23;20017;-85
2021/12/07 10:11:27;;;;;;;13.68;2.30;;;7.30;99.90;;;;;;6157619;23;20104;-87
2021/12/07 10:13:57;;;;;;;14.20;3.00;;;7.60;99.90;;;;;;6157535;23;20025;-87
2021/12/07 10:16:25;;;;;;;10.63;2.80;;;7.80;99.90;;;;;;6191781;23;20063;-88
2021/12/07 10:18:53;;;;;;;11.23;2.60;;;8.00;99.90;;;;;;6160291;23;20025;-84
2021/12/07 10:21:37;;;;;;;9.57;2.47;;;8.10;99.90;;;;;;6184353;23;20017;-82
2021/12/07 10:24:08;;;;;;;11.13;3.22;;;8.40;99.90;;;;;;6157453;23;20503;-88
2021/12/07 10:26:47;;;;;;;10.25;2.58;;;8.60;99.90;;;;;;6185211;23;20030;-87
2021/12/07 10:29:17;;;;;;;17.10;4.55;;;8.50;99.90;;;;;;6158570;23;20017;-83
2021/12/07 10:31:47;;;;;;;13.90;5.30;;;8.20;99.90;;;;;;6157446;23;20655;-81
2021/12/07 10:34:16;;;;;;;19.40;4.15;;;7.80;99.90;;;;;;6133950;23;20032;-82
2021/12/07 10:36:52;;;;;;;15.57;4.70;;;7.50;99.90;;;;;;6160279;23;20060;-83
2021/12/07 10:39:31;;;;;;;14.50;3.88;;;7.80;99.90;;;;;;6160304;23;20027;-81
2021/12/07 10:42:07;;;;;;;17.92;2.95;;;8.00;99.90;;;;;;6157091;23;20025;-81
2021/12/07 10:44:44;;;;;;;15.98;4.13;;;7.80;99.90;;;;;;6157692;23;20052;-82
2021/12/07 10:47:20;;;;;;;13.40;4.82;;;7.80;99.90;;;;;;6133464;23;20021;-80
2021/12/07 10:49:53;;;;;;;16.15;3.97;;;8.00;99.90;;;;;;6157296;23;20025;-76
2021/12/07 10:52:33;;;;;;;12.30;3.30;;;8.20;99.90;;;;;;6157360;23;20028;-81
2021/12/07 10:55:26;;;;;;;9.68;3.05;;;8.50;99.90;;;;;;6157763;23;20031;-80
2021/12/07 10:57:58;;;;;;;17.08;3.35;;;8.70;99.90;;;;;;6157486;23;20025;-74
2021/12/07 11:00:45;;;;;;;12.50;3.80;;;8.80;99.90;;;;;;6176176;23;20044;-80
2021/12/07 11:03:21;;;;;;;13.65;3.50;;;9.00;99.90;;;;;;6159324;23;20025;-75
2021/12/07 11:05:51;;;;;;;10.15;2.35;;;9.50;99.90;;;;;;6181337;23;20033;-79
2021/12/07 11:08:20;;;;;;;9.38;3.72;;;10.00;99.90;;;;;;6158187;23;20032;-78
2021/12/07 11:11:09;;;;;;;10.02;2.17;;;10.20;99.90;;;;;;6183095;23;20095;-76
2021/12/07 11:13:49;;;;;;;16.15;2.83;;;10.00;99.90;;;;;;6183295;23;20025;-75
2021/12/07 11:16:17;;;;;;;9.52;2.67;;;9.80;99.90;;;;;;6203318;23;20033;-72
2021/12/07 11:18:48;;;;;;;14.52;2.63;;;9.50;99.90;;;;;;6182118;23;20025;-74
2021/12/07 11:21:24;;;;;;;10.15;2.42;;;9.40;99.90;;;;;;6160121;23;20349;-76
2021/12/07 11:23:58;;;;;;;11.82;2.83;;;9.60;99.90;;;;;;6208005;23;20099;-73
2021/12/07 11:31:50;;;;;;;9.27;2.83;;;10.70;99.90;;;;;;6183612;23;20021;-76
2021/12/07 11:34:28;;;;;;;7.40;2.20;;;10.70;99.90;;;;;;6183531;23;20017;-80
2021/12/07 11:37:06;;;;;;;12.40;2.95;;;10.90;99.90;;;;;;6208598;23;20384;-79
2021/12/07 11:39:48;;;;;;;8.23;2.30;;;10.90;99.90;;;;;;6183543;23;20088;-80
2021/12/07 11:42:22;;;;;;;15.27;3.08;;;11.00;99.90;;;;;;6209999;23;20080;-76
2021/12/07 11:45:08;;;;;;;10.88;2.80;;;11.00;99.90;;;;;;6157678;23;20103;-74
2021/12/07 11:47:49;;;;;;;15.50;2.70;;;11.10;99.90;;;;;;6158757;23;20032;-77
2021/12/07 11:50:41;;;;;;;9.23;2.28;;;11.00;99.90;;;;;;6185120;23;20029;-75
2021/12/07 11:53:13;;;;;;;10.15;3.42;;;10.70;99.90;;;;;;6183820;23;20356;-78
2021/12/07 11:55:42;;;;;;;15.57;3.72;;;10.40;99.90;;;;;;6158441;23;20092;-75
2021/12/07 11:58:09;;;;;;;10.68;2.60;;;10.10;99.90;;;;;;6159114;23;20047;-81
2021/12/07 12:00:42;;;;;;;13.60;3.10;;;9.90;99.90;;;;;;6185738;23;20594;-80
2021/12/07 12:03:11;;;;;;;13.82;3.00;;;9.80;99.90;;;;;;6188904;23;20079;-83
2021/12/07 12:05:41;;;;;;;13.65;3.10;;;9.80;99.90;;;;;;6160956;23;20083;-82
2021/12/07 12:08:09;;;;;;;16.75;2.88;;;10.00;99.90;;;;;;6159321;23;20083;-84
2021/12/07 12:10:41;;;;;;;11.82;2.28;;;10.20;99.90;;;;;;6183547;23;20108;-77
2021/12/07 12:13:40;;;;;;;12.27;3.20;;;10.50;99.90;;;;;;6182371;23;20024;-81
2021/12/07 12:16:20;;;;;;;15.15;2.15;;;10.60;99.90;;;;;;6182771;23;20025;-79
2021/12/07 12:19:05;;;;;;;14.45;3.35;;;10.80;99.90;;;;;;6182818;23;20107;-78
2021/12/07 12:21:43;;;;;;;13.77;3.47;;;11.10;99.90;;;;;;6185191;23;20021;-85
2021/12/07 12:24:25;;;;;;;19.00;3.05;;;11.30;99.90;;;;;;6183797;23;20457;-83
2021/12/07 12:27:20;;;;;;;14.68;2.28;;;11.20;99.90;;;;;;6185041;23;20025;-83
2021/12/07 12:29:50;;;;;;;9.50;2.63;;;11.40;99.90;;;;;;6146106;23;20024;-81
2021/12/07 12:32:36;;;;;;;9.35;2.20;;;11.50;99.90;;;;;;6183928;23;20613;-76
2021/12/07 12:35:04;;;;;;;12.57;3.17;;;11.80;99.90;;;;;;6185286;23;20028;-77
2021/12/07 12:37:31;;;;;;;16.00;3.20;;;12.00;99.90;;;;;;6184802;23;20033;-79
2021/12/07 12:40:00;;;;;;;15.55;4.10;;;11.80;99.90;;;;;;6183326;23;20110;-79
2021/12/07 12:42:33;;;;;;;10.68;2.85;;;11.90;99.90;;;;;;6182622;23;20103;-88
2021/12/07 12:45:16;;;;;;;14.20;2.65;;;11.80;99.90;;;;;;6184007;23;20028;-72
2021/12/07 12:47:42;;;;;;;12.65;2.85;;;11.70;99.90;;;;;;6183082;23;20339;-80
2021/12/07 12:50:19;;;;;;;9.50;2.20;;;11.20;99.90;;;;;;6164585;23;20028;-75
2021/12/07 12:52:51;;;;;;;10.65;3.33;;;10.60;99.90;;;;;;6185262;23;20108;-85
2021/12/07 12:55:40;;;;;;;10.55;2.33;;;10.20;99.90;;;;;;6158881;23;20091;-75
2021/12/07 12:58:14;;;;;;;14.57;2.97;;;9.70;99.90;;;;;;6183851;23;20021;-76
2021/12/07 13:01:01;;;;;;;12.57;2.30;;;9.40;99.90;;;;;;6157864;23;20352;-74
2021/12/07 13:03:58;;;;;;;14.32;3.13;;;9.10;99.90;;;;;;6183156;23;20029;-71
2021/12/07 13:06:33;;;;;;;9.65;2.47;;;8.90;99.90;;;;;;6183405;23;20025;-73
2021/12/07 13:09:18;;;;;;;12.18;2.40;;;8.70;99.90;;;;;;6184531;23;20021;-76
2021/12/07 13:12:06;;;;;;;11.77;3.67;;;8.50;99.90;;;;;;6183417;23;20056;-81
2021/12/07 13:14:50;;;;;;;9.02;2.28;;;8.30;99.90;;;;;;6183083;23;20024;-76
2021/12/07 13:17:22;;;;;;;10.45;2.25;;;8.10;99.90;;;;;;6183071;23;20017;-81
2021/12/07 13:20:01;;;;;;;13.15;2.92;;;8.00;99.90;;;;;;6182873;23;20033;-75
2021/12/07 13:22:40;;;;;;;14.68;2.75;;;7.90;99.90;;;;;;6182861;23;20028;-75
2021/12/07 13:25:18;;;;;;;12.13;2.53;;;7.70;99.90;;;;;;6185000;23;20068;-81
2021/12/07 13:28:31;;;;;;;9.60;2.83;;;7.60;99.90;;;;;;6182891;23;20076;-86
2021/12/07 13:31:09;;;;;;;12.27;2.97;;;7.50;99.90;;;;;;6145824;23;20032;-82
2021/12/07 13:33:39;;;;;;;16.27;3.03;;;7.40;99.90;;;;;;6184605;23;20032;-83
2021/12/07 13:36:36;;;;;;;11.30;2.92;;;7.40;99.90;;;;;;6184050;23;20067;-79
2021/12/07 13:39:23;;;;;;;18.95;3.53;;;7.30;99.90;;;;;;6183189;23;20451;-77
2021/12/07 13:42:16;;;;;;;14.07;2.55;;;7.30;99.90;;;;;;6183694;23;20060;-79
2021/12/07 13:45:09;;;;;;;14.00;2.83;;;7.20;99.90;;;;;;6182842;23;20056;-75
2021/12/07 13:47:37;;;;;;;12.30;2.70;;;7.10;99.90;;;;;;6182339;23;20124;-74
2021/12/07 13:50:06;;;;;;;13.43;3.70;;;7.10;99.90;;;;;;6179176;23;20040;-75
2021/12/07 13:52:49;;;;;;;8.77;2.60;;;7.00;99.90;;;;;;6158755;23;20036;-82
2021/12/07 13:55:37;;;;;;;11.02;3.00;;;7.00;99.90;;;;;;6183279;23;20041;-82
2021/12/07 13:58:11;;;;;;;12.55;3.42;;;6.90;99.90;;;;;;6183114;23;20084;-80
2021/12/07 14:00:37;;;;;;;17.45;3.40;;;6.80;99.90;;;;;;6182779;23;20093;-79
2021/12/07 14:03:13;;;;;;;20.83;4.82;;;6.70;99.90;;;;;;6184948;23;20048;-80
2021/12/07 14:05:42;;;;;;;9.07;3.00;;;6.70;99.90;;;;;;6157751;23;20027;-77
2021/12/07 14:08:12;;;;;;;13.10;3.13;;;6.60;99.90;;;;;;6182936;23;20028;-78
2021/12/07 14:10:50;;;;;;;15.23;3.50;;;6.50;99.90;;;;;;6182009;23;20036;-76
2021/12/07 14:13:25;;;;;;;13.70;3.53;;;6.40;99.90;;;;;;6181724;23;20035;-76
2021/12/07 14:15:51;;;;;;;13.68;4.57;;;6.40;99.90;;;;;;6184710;23;20060;-78
2021/12/07 14:18:22;;;;;;;13.07;3.30;;;6.30;99.90;;;;;;6182850;23;20032;-77
2021/12/07 14:20:55;;;;;;;18.55;3.63;;;6.20;99.90;;;;;;6184217;23;20029;-75
2021/12/07 14:23:29;;;;;;;11.82;3.10;;;6.10;99.90;;;;;;6184136;23;20029;-73
2021/12/07 14:25:54;;;;;;;13.77;4.03;;;6.10;99.90;;;;;;6183744;23;20025;-77
2021/12/07 14:28:35;;;;;;;11.13;3.58;;;5.90;99.90;;;;;;6182061;23;20025;-78
2021/12/07 14:31:10;;;;;;;14.80;3.83;;;5.90;99.90;;;;;;6182194;23;20021;-78
2021/12/07 14:33:40;;;;;;;16.42;3.13;;;5.80;99.90;;;;;;6181399;23;20025;-77
2021/12/07 14:36:07;;;;;;;14.38;3.70;;;5.70;99.90;;;;;;6157531;23;20021;-77
2021/12/07 14:38:37;;;;;;;12.82;3.47;;;5.70;99.90;;;;;;6181291;23;20017;-82
2021/12/07 14:41:11;;;;;;;21.30;3.97;;;5.60;99.90;;;;;;6182861;23;20032;-85
2021/12/07 14:43:56;;;;;;;15.68;3.25;;;5.50;99.90;;;;;;6182656;23;20527;-77
2021/12/07 14:46:26;;;;;;;13.00;3.88;;;5.40;99.90;;;;;;6181956;23;20878;-81
2021/12/07 14:48:54;;;;;;;14.27;3.83;;;5.30;99.90;;;;;;6183478;23;20025;-82
2021/12/07 14:51:26;;;;;;;21.23;3.78;;;5.20;99.90;;;;;;6134038;23;20119;-83
2021/12/07 14:53:58;;;;;;;17.60;4.35;;;5.20;99.90;;;;;;6133111;23;20048;-83